createdAt,value
2022-12-25T00:01:49.303Z,91.38
2022-12-25T00:04:17.449Z,90.95
2022-12-25T00:06:44.199Z,90.86
2022-12-25T00:09:10.848Z,90.67
2022-12-25T00:11:38.157Z,90.81
2022-12-25T00:14:04.858Z,90.71
2022-12-25T00:16:31.532Z,90.72
2022-12-25T00:18:58.166Z,90.35
2022-12-25T00:21:26.975Z,89.97
2022-12-25T00:23:54.299Z,89.99
2022-12-25T00:26:21.552Z,90.07
2022-12-25T00:28:48.322Z,90.35
2022-12-25T00:31:17.540Z,90.44
2022-12-25T00:33:46.166Z,90.18
2022-12-25T00:36:15.049Z,90.30
2022-12-25T00:38:43.538Z,89.70
2022-12-25T00:41:12.166Z,89.64
2022-12-25T00:43:39.179Z,89.66
2022-12-25T00:46:06.875Z,89.25
2022-12-25T00:48:34.779Z,89.34
2022-12-25T00:51:03.276Z,89.25
2022-12-25T00:53:30.444Z,89.36
2022-12-25T00:56:00.055Z,89.49
2022-12-25T00:58:28.950Z,89.76
2022-12-25T01:00:55.806Z,89.93
2022-12-25T01:03:23.499Z,89.98
2022-12-25T01:05:56.140Z,89.57
2022-12-25T01:08:22.846Z,90.04
2022-12-25T01:10:54.770Z,89.95
2022-12-25T01:13:22.869Z,90.31
2022-12-25T01:15:49.960Z,90.14
2022-12-25T01:18:16.605Z,90.19
2022-12-25T01:20:43.309Z,90.34
2022-12-25T01:23:10.026Z,90.92
2022-12-25T01:25:36.610Z,91.24
2022-12-25T01:28:03.428Z,90.94
2022-12-25T01:30:31.463Z,91.14
2022-12-25T01:32:58.381Z,91.31
2022-12-25T01:35:25.378Z,91.26
2022-12-25T01:37:52.246Z,91.10
2022-12-25T01:40:19.148Z,91.00
2022-12-25T01:42:46.140Z,90.32
2022-12-25T01:45:35.595Z,90.33
2022-12-25T01:48:05.806Z,90.33
2022-12-25T01:50:34.099Z,90.24
2022-12-25T01:53:00.822Z,90.18
2022-12-25T01:55:27.803Z,90.10
2022-12-25T01:57:54.751Z,89.79
2022-12-25T02:00:21.468Z,89.57
2022-12-25T02:02:49.711Z,89.50
2022-12-25T02:05:22.864Z,89.28
2022-12-25T02:07:50.227Z,89.04
2022-12-25T02:10:17.805Z,88.96
2022-12-25T02:12:45.382Z,88.54
2022-12-25T02:15:15.375Z,88.46
2022-12-25T02:17:49.677Z,88.19
2022-12-25T02:20:45.552Z,88.17
2022-12-25T02:23:57.784Z,88.20
2022-12-25T02:26:59.567Z,87.66
2022-12-25T02:29:33.387Z,87.60
2022-12-25T02:32:05.670Z,87.96
2022-12-25T02:34:35.497Z,88.29
2022-12-25T02:37:06.581Z,88.32
2022-12-25T02:39:48.906Z,88.12
2022-12-25T02:42:22.385Z,87.88
2022-12-25T02:44:51.860Z,88.05
2022-12-25T02:47:19.836Z,87.77
2022-12-25T02:49:47.602Z,87.10
2022-12-25T02:52:19.769Z,87.06
2022-12-25T02:54:51.188Z,87.21
2022-12-25T02:57:21.546Z,87.35
2022-12-25T02:59:54.073Z,87.26
2022-12-25T03:02:23.460Z,87.32
2022-12-25T03:04:52.980Z,87.25
2022-12-25T03:07:22.391Z,87.00
2022-12-25T03:09:54.967Z,87.49
2022-12-25T03:12:31.126Z,87.84
2022-12-25T03:14:59.200Z,87.60
2022-12-25T03:17:26.328Z,87.59
2022-12-25T03:19:53.035Z,87.71
2022-12-25T03:22:24.424Z,87.54
2022-12-25T03:24:51.429Z,87.17
2022-12-25T03:27:18.062Z,87.08
2022-12-25T03:29:44.767Z,87.62
2022-12-25T03:32:23.246Z,87.87
2022-12-25T03:34:57.083Z,87.64
2022-12-25T03:37:31.808Z,87.99
2022-12-25T03:40:07.480Z,88.03
2022-12-25T03:42:42.695Z,87.99
2022-12-25T03:45:16.341Z,87.67
2022-12-25T03:47:47.421Z,87.64
2022-12-25T03:50:19.744Z,87.45
2022-12-25T03:52:48.231Z,87.00
2022-12-25T03:55:17.110Z,87.05
2022-12-25T03:57:43.811Z,86.92
2022-12-25T04:00:11.344Z,86.71
2022-12-25T04:02:38.515Z,86.96
2022-12-25T04:05:07.614Z,86.49
2022-12-25T04:07:34.368Z,86.33
2022-12-25T04:10:01.067Z,86.40
2022-12-25T04:12:27.670Z,86.47
2022-12-25T04:14:54.352Z,86.27
2022-12-25T04:17:21.039Z,86.16
2022-12-25T04:19:47.649Z,86.21
2022-12-25T04:22:15.747Z,86.51
2022-12-25T04:24:42.420Z,86.54
2022-12-25T04:27:09.115Z,86.66
2022-12-25T04:29:35.687Z,86.73
2022-12-25T04:32:02.404Z,86.28
2022-12-25T04:34:29.082Z,86.71
2022-12-25T04:36:55.719Z,87.00
2022-12-25T04:39:23.757Z,86.95
2022-12-25T04:41:50.408Z,86.54
2022-12-25T04:44:17.105Z,87.06
2022-12-25T04:46:43.837Z,86.72
2022-12-25T04:49:10.635Z,87.06
2022-12-25T04:51:37.331Z,87.13
2022-12-25T04:54:04.192Z,87.02
2022-12-25T04:56:33.228Z,87.01
2022-12-25T04:58:59.967Z,87.44
2022-12-25T05:01:27.229Z,87.61
2022-12-25T05:03:54.052Z,87.39
2022-12-25T05:06:21.015Z,87.25
2022-12-25T05:08:47.634Z,87.44
2022-12-25T05:11:15.734Z,87.05
2022-12-25T05:13:44.252Z,87.40
2022-12-25T05:16:14.020Z,87.45
2022-12-25T05:18:40.918Z,87.27
2022-12-25T05:21:08.074Z,87.21
2022-12-25T05:23:34.987Z,87.09
2022-12-25T05:26:04.860Z,87.03
2022-12-25T05:28:31.529Z,86.92
2022-12-25T05:30:59.678Z,87.07
2022-12-25T05:33:26.471Z,87.40
2022-12-25T05:35:53.175Z,87.58
2022-12-25T05:38:19.782Z,87.25
2022-12-25T05:40:46.445Z,87.54
2022-12-25T05:43:13.076Z,87.31
2022-12-25T05:45:39.704Z,87.54
2022-12-25T05:48:09.637Z,87.45
2022-12-25T05:50:36.935Z,87.50
2022-12-25T05:53:08.084Z,87.98
2022-12-25T05:55:35.688Z,88.49
2022-12-25T05:58:02.538Z,88.85
2022-12-25T06:00:29.175Z,88.63
2022-12-25T06:02:56.020Z,88.62
2022-12-25T06:05:24.627Z,88.63
2022-12-25T06:07:51.309Z,88.45
2022-12-25T06:10:18.276Z,88.35
2022-12-25T06:12:44.928Z,88.31
2022-12-25T06:15:11.784Z,87.92
2022-12-25T06:17:38.623Z,87.75
2022-12-25T06:20:06.844Z,88.55
2022-12-25T06:22:35.576Z,88.00
2022-12-25T06:25:02.338Z,88.18
2022-12-25T06:27:29.072Z,87.86
2022-12-25T06:29:55.803Z,88.17
2022-12-25T06:32:22.603Z,88.23
2022-12-25T06:34:49.251Z,87.84
2022-12-25T06:37:15.921Z,88.30
2022-12-25T06:39:43.890Z,88.20
2022-12-25T06:42:10.539Z,88.02
2022-12-25T06:44:38.334Z,88.13
2022-12-25T06:47:05.241Z,87.84
2022-12-25T06:49:31.936Z,88.09
2022-12-25T06:51:58.623Z,87.93
2022-12-25T06:54:25.290Z,88.43
2022-12-25T06:56:53.291Z,88.45
2022-12-25T06:59:20.104Z,88.12
2022-12-25T07:01:49.230Z,87.96
2022-12-25T07:04:20.890Z,87.88
2022-12-25T07:06:47.494Z,87.83
2022-12-25T07:09:14.198Z,87.80
2022-12-25T07:11:40.799Z,87.74
2022-12-25T07:14:23.225Z,87.84
2022-12-25T07:16:50.723Z,87.95
2022-12-25T07:19:17.566Z,88.09
2022-12-25T07:21:44.228Z,88.12
2022-12-25T07:24:10.832Z,88.03
2022-12-25T07:26:37.443Z,87.88
2022-12-25T07:29:04.195Z,88.08
2022-12-25T07:31:32.323Z,87.89
2022-12-25T07:33:58.966Z,88.23
2022-12-25T07:36:25.644Z,88.13
2022-12-25T07:38:52.325Z,88.49
2022-12-25T07:41:19.160Z,88.71
2022-12-25T07:43:49.689Z,89.16
2022-12-25T07:46:16.433Z,89.22
2022-12-25T07:48:44.637Z,89.51
2022-12-25T07:51:13.907Z,89.91
2022-12-25T07:53:41.044Z,89.78
2022-12-25T07:56:11.477Z,90.12
2022-12-25T07:58:38.450Z,90.23
2022-12-25T08:01:07.042Z,90.19
2022-12-25T08:03:35.065Z,90.42
2022-12-25T08:06:05.674Z,90.65
2022-12-25T08:08:32.464Z,90.45
2022-12-25T08:10:59.182Z,91.12
2022-12-25T08:13:25.947Z,90.89
2022-12-25T08:15:57.011Z,90.89
2022-12-25T08:18:29.451Z,90.87
2022-12-25T08:20:56.684Z,90.73
2022-12-25T08:23:24.750Z,90.96
2022-12-25T08:25:51.406Z,91.05
2022-12-25T08:28:18.044Z,91.49
2022-12-25T08:30:44.681Z,91.74
2022-12-25T08:33:11.402Z,91.95
2022-12-25T08:35:38.028Z,91.67
2022-12-25T08:38:04.641Z,91.96
2022-12-25T08:40:32.671Z,92.14
2022-12-25T08:42:59.282Z,92.20
2022-12-25T08:45:31.185Z,91.81
2022-12-25T08:48:01.257Z,92.22
2022-12-25T08:50:27.909Z,92.35
2022-12-25T08:52:54.570Z,92.75
2022-12-25T08:55:21.280Z,92.57
2022-12-25T08:57:52.249Z,92.68
2022-12-25T09:00:19.626Z,93.01
2022-12-25T09:02:46.297Z,92.99
2022-12-25T09:05:13.206Z,93.05
2022-12-25T09:07:39.841Z,92.93
2022-12-25T09:10:07.959Z,92.89
2022-12-25T09:12:34.634Z,93.01
2022-12-25T09:15:02.791Z,93.26
2022-12-25T09:17:29.392Z,93.39
2022-12-25T09:19:56.081Z,93.31
2022-12-25T09:22:22.740Z,93.15
2022-12-25T09:24:49.392Z,93.68
2022-12-25T09:27:16.090Z,93.58
2022-12-25T09:29:42.872Z,94.11
2022-12-25T09:32:11.047Z,93.77
2022-12-25T09:34:37.702Z,93.89
2022-12-25T09:37:04.379Z,93.78
2022-12-25T09:39:31.024Z,93.61
2022-12-25T09:42:01.625Z,93.77
2022-12-25T09:44:32.126Z,94.02
2022-12-25T09:47:02.655Z,94.04
2022-12-25T09:49:37.100Z,94.41
2022-12-25T09:52:08.222Z,94.47
2022-12-25T09:54:41.818Z,94.73
2022-12-25T09:57:11.934Z,95.08
2022-12-25T09:59:38.943Z,94.97
2022-12-25T10:02:33.752Z,95.22
2022-12-25T10:05:24.012Z,95.23
2022-12-25T10:08:00.263Z,95.38
2022-12-25T10:10:43.375Z,95.56
2022-12-25T10:13:26.289Z,95.41
2022-12-25T10:16:04.078Z,95.33
2022-12-25T10:18:47.989Z,95.35
2022-12-25T10:21:18.777Z,95.23
2022-12-25T10:23:50.048Z,95.14
2022-12-25T10:26:18.202Z,94.92
2022-12-25T10:28:47.942Z,94.98
2022-12-25T10:31:19.533Z,94.92
2022-12-25T10:33:46.787Z,94.93
2022-12-25T10:36:14.774Z,94.78
2022-12-25T10:38:42.791Z,94.83
2022-12-25T10:41:21.942Z,94.88
2022-12-25T10:43:50.699Z,94.91
2022-12-25T10:46:19.211Z,94.68
2022-12-25T10:48:49.435Z,94.70
2022-12-25T10:51:28.162Z,94.69
2022-12-25T10:53:56.691Z,94.82
2022-12-25T10:56:23.697Z,94.63
2022-12-25T10:58:50.431Z,94.86
2022-12-25T11:01:17.346Z,94.91
2022-12-25T11:03:46.017Z,95.07
2022-12-25T11:06:22.827Z,95.46
2022-12-25T11:08:53.239Z,95.08
2022-12-25T11:11:21.851Z,95.27
2022-12-25T11:13:50.764Z,94.94
2022-12-25T11:16:27.984Z,94.81
2022-12-25T11:18:55.803Z,94.79
2022-12-25T11:21:24.701Z,94.57
2022-12-25T11:23:57.331Z,94.36
2022-12-25T11:26:26.514Z,94.15
2022-12-25T11:28:54.717Z,94.31
2022-12-25T11:31:29.480Z,94.00
2022-12-25T11:34:00.983Z,93.85
2022-12-25T11:36:32.602Z,94.02
2022-12-25T11:39:07.991Z,94.22
2022-12-25T11:41:38.016Z,94.23
2022-12-25T11:44:14.929Z,94.42
2022-12-25T11:46:45.810Z,94.23
2022-12-25T11:49:18.577Z,94.42
2022-12-25T11:51:49.035Z,94.49
2022-12-25T11:54:23.067Z,94.38
2022-12-25T11:56:51.032Z,94.65
2022-12-25T11:59:22.778Z,94.73
2022-12-25T12:01:54.793Z,94.93
2022-12-25T12:04:29.965Z,94.73
2022-12-25T12:07:04.870Z,94.56
2022-12-25T12:09:42.716Z,94.77
2022-12-25T12:12:18.708Z,94.67
2022-12-25T12:14:55.618Z,94.91
2022-12-25T12:17:22.340Z,94.75
2022-12-25T12:19:48.996Z,94.62
2022-12-25T12:22:20.175Z,94.78
2022-12-25T12:24:53.228Z,94.67
2022-12-25T12:27:25.158Z,94.54
2022-12-25T12:29:55.778Z,94.85
2022-12-25T12:32:37.684Z,94.69
2022-12-25T12:35:14.887Z,94.62
2022-12-25T12:37:42.698Z,94.89
2022-12-25T12:40:33.614Z,94.43
2022-12-25T12:43:03.117Z,94.78
2022-12-25T12:45:32.340Z,94.72
2022-12-25T12:47:59.629Z,94.65
2022-12-25T12:50:36.218Z,94.81
2022-12-25T12:53:18.324Z,94.84
2022-12-25T12:55:45.087Z,94.75
2022-12-25T12:58:29.318Z,94.72
2022-12-25T13:01:08.653Z,94.80
2022-12-25T13:03:52.041Z,94.73
2022-12-25T13:06:23.654Z,94.83
2022-12-25T13:09:02.242Z,94.73
2022-12-25T13:11:31.304Z,94.72
2022-12-25T13:14:02.434Z,94.82
2022-12-25T13:16:33.393Z,94.68
2022-12-25T13:19:05.620Z,94.72
2022-12-25T13:21:33.377Z,94.64
2022-12-25T13:24:02.044Z,94.55
2022-12-25T13:26:29.580Z,94.51
2022-12-25T13:28:56.828Z,94.73
2022-12-25T13:31:26.781Z,94.78
2022-12-25T13:33:58.169Z,94.77
2022-12-25T13:36:27.122Z,94.61
2022-12-25T13:38:56.442Z,94.50
2022-12-25T13:41:26.707Z,94.65
2022-12-25T13:43:58.156Z,94.68
2022-12-25T13:46:27.354Z,94.92
2022-12-25T13:48:58.554Z,94.83
2022-12-25T13:51:25.119Z,94.90
2022-12-25T13:54:02.433Z,94.96
2022-12-25T13:56:29.246Z,95.05
2022-12-25T13:58:56.126Z,95.16
2022-12-25T14:01:22.865Z,95.20
2022-12-25T14:03:50.876Z,95.13
2022-12-25T14:06:19.673Z,95.12
2022-12-25T14:08:47.908Z,95.11
2022-12-25T14:11:16.460Z,95.00
2022-12-25T14:13:45.128Z,95.19
2022-12-25T14:16:15.474Z,95.18
2022-12-25T14:18:52.564Z,95.08
2022-12-25T14:21:27.776Z,95.01
2022-12-25T14:23:54.823Z,95.02
2022-12-25T14:26:23.370Z,95.04
2022-12-25T14:28:52.876Z,94.97
2022-12-25T14:31:20.630Z,95.20
2022-12-25T14:33:49.236Z,95.42
2022-12-25T14:36:17.970Z,95.39
2022-12-25T14:38:44.615Z,95.50
2022-12-25T14:41:26.157Z,95.38
2022-12-25T14:43:54.807Z,95.45
2022-12-25T14:46:23.857Z,95.58
2022-12-25T14:48:58.797Z,95.30
2022-12-25T14:51:27.106Z,95.51
2022-12-25T14:53:56.584Z,95.62
2022-12-25T14:56:25.515Z,95.26
2022-12-25T14:58:54.805Z,95.64
2022-12-25T15:01:27.125Z,95.68
2022-12-25T15:04:04.624Z,96.01
2022-12-25T15:06:32.949Z,95.97
2022-12-25T15:09:01.289Z,95.88
2022-12-25T15:11:28.872Z,95.98
2022-12-25T15:13:55.662Z,96.22
2022-12-25T15:16:24.528Z,96.29
2022-12-25T15:18:52.576Z,96.67
2022-12-25T15:21:25.190Z,96.84
2022-12-25T15:23:53.989Z,97.08
2022-12-25T15:26:20.816Z,96.92
2022-12-25T15:28:47.580Z,96.77
2022-12-25T15:31:20.337Z,97.28
2022-12-25T15:33:46.974Z,97.29
2022-12-25T15:36:13.911Z,97.43
2022-12-25T15:38:40.535Z,97.58
2022-12-25T15:41:13.402Z,97.60
2022-12-25T15:43:41.076Z,97.79
2022-12-25T15:46:09.324Z,97.80
2022-12-25T15:48:35.987Z,97.82
2022-12-25T15:51:02.593Z,97.83
2022-12-25T15:53:29.193Z,97.87
2022-12-25T15:55:55.824Z,97.91
2022-12-25T15:58:23.863Z,98.03
2022-12-25T16:00:50.658Z,98.15
2022-12-25T16:03:17.308Z,98.01
2022-12-25T16:05:43.958Z,97.93
2022-12-25T16:08:10.563Z,97.86
2022-12-25T16:10:39.152Z,98.04
2022-12-25T16:13:07.151Z,97.89
2022-12-25T16:15:35.352Z,98.00
2022-12-25T16:18:02.017Z,98.06
2022-12-25T16:20:28.634Z,98.04
2022-12-25T16:22:55.259Z,98.05
2022-12-25T16:25:21.853Z,98.00
2022-12-25T16:27:48.398Z,98.07
2022-12-25T16:30:17.447Z,97.96
2022-12-25T16:32:49.604Z,98.03
2022-12-25T16:35:16.311Z,98.09
2022-12-25T16:37:43.041Z,98.05
2022-12-25T16:40:10.340Z,97.85
2022-12-25T16:42:37.306Z,97.97
2022-12-25T16:45:04.806Z,98.08
2022-12-25T16:47:31.593Z,97.78
2022-12-25T16:49:59.670Z,97.95
2022-12-25T16:52:26.457Z,98.03
2022-12-25T16:54:53.221Z,98.01
2022-12-25T16:57:19.843Z,97.97
2022-12-25T16:59:46.585Z,97.97
2022-12-25T17:02:15.541Z,98.04
2022-12-25T17:04:42.793Z,98.07
2022-12-25T17:07:11.177Z,98.21
2022-12-25T17:09:43.859Z,98.03
2022-12-25T17:12:11.115Z,98.24
2022-12-25T17:14:37.819Z,98.07
2022-12-25T17:17:04.528Z,98.13
2022-12-25T17:19:31.319Z,98.36
2022-12-25T17:21:58.127Z,98.36
2022-12-25T17:24:26.456Z,98.24
2022-12-25T17:26:53.450Z,98.53
2022-12-25T17:29:22.393Z,98.30
2022-12-25T17:31:49.684Z,98.39
2022-12-25T17:34:16.323Z,98.41
2022-12-25T17:36:43.038Z,98.27
2022-12-25T17:39:11.061Z,98.34
2022-12-25T17:41:39.270Z,98.60
2022-12-25T17:44:05.858Z,98.57
2022-12-25T17:46:32.740Z,98.59
2022-12-25T17:49:01.104Z,98.72
2022-12-25T17:51:31.432Z,98.69
2022-12-25T17:54:00.325Z,98.77
2022-12-25T17:56:26.989Z,98.81
2022-12-25T17:58:56.647Z,98.74
2022-12-25T18:01:24.985Z,98.75
2022-12-25T18:03:52.262Z,98.79
2022-12-25T18:06:21.230Z,98.85
2022-12-25T18:08:48.673Z,98.78
2022-12-25T18:11:17.718Z,98.70
2022-12-25T18:13:45.890Z,98.72
2022-12-25T18:16:14.588Z,98.65
2022-12-25T18:18:45.192Z,98.70
2022-12-25T18:21:16.283Z,98.93
2022-12-25T18:23:42.949Z,98.88
2022-12-25T18:26:11.001Z,98.84
2022-12-25T18:28:38.013Z,98.68
2022-12-25T18:31:07.633Z,99.02
2022-12-25T18:33:35.866Z,98.70
2022-12-25T18:36:02.814Z,98.74
2022-12-25T18:38:29.475Z,98.64
2022-12-25T18:40:56.138Z,98.79
2022-12-25T18:43:53.159Z,98.92
2022-12-25T18:46:09.751Z,99.04
2022-12-25T18:48:39.154Z,99.11
2022-12-25T18:51:08.561Z,98.86
2022-12-25T18:53:36.103Z,99.03
2022-12-25T18:56:05.940Z,99.17
2022-12-25T18:58:32.796Z,99.13
2022-12-25T19:00:59.510Z,99.10
2022-12-25T19:03:26.278Z,99.31
2022-12-25T19:05:54.350Z,99.05
2022-12-25T19:08:20.930Z,99.12
2022-12-25T19:10:47.559Z,99.36
2022-12-25T19:13:14.233Z,99.45
2022-12-25T19:15:42.536Z,99.49
2022-12-25T19:18:09.286Z,99.33
2022-12-25T19:20:38.739Z,99.09
2022-12-25T19:23:06.864Z,98.98
2022-12-25T19:25:33.717Z,99.29
2022-12-25T19:28:00.366Z,99.19
2022-12-25T19:30:26.974Z,99.28
2022-12-25T19:32:53.631Z,99.32
2022-12-25T19:35:20.191Z,99.23
2022-12-25T19:37:46.980Z,99.16
2022-12-25T19:40:15.002Z,99.40
2022-12-25T19:42:41.561Z,99.16
2022-12-25T19:45:09.061Z,99.32
2022-12-25T19:47:35.719Z,99.39
2022-12-25T19:50:03.432Z,99.42
2022-12-25T19:52:30.398Z,99.23
2022-12-25T19:54:57.170Z,99.26
2022-12-25T19:57:25.296Z,99.15
2022-12-25T19:59:52.253Z,99.19
2022-12-25T20:02:19.123Z,99.25
2022-12-25T20:04:45.891Z,99.65
2022-12-25T20:07:12.669Z,99.47
2022-12-25T20:09:39.481Z,99.68
2022-12-25T20:12:06.617Z,99.59
2022-12-25T20:14:34.800Z,99.56
2022-12-25T20:17:01.762Z,99.54
2022-12-25T20:19:28.535Z,99.53
2022-12-25T20:21:55.519Z,99.51
2022-12-25T20:24:22.454Z,99.48
2022-12-25T20:26:51.481Z,99.66
2022-12-25T20:29:22.308Z,99.90
2022-12-25T20:31:51.624Z,99.84
2022-12-25T20:34:18.482Z,99.76
2022-12-25T20:36:45.050Z,99.87
2022-12-25T20:39:12.634Z,99.70
2022-12-25T20:41:39.461Z,99.79
2022-12-25T20:44:08.123Z,99.60
2022-12-25T20:46:34.840Z,99.47
2022-12-25T20:49:03.561Z,99.39
2022-12-25T20:51:30.360Z,99.38
2022-12-25T20:53:57.378Z,99.37
2022-12-25T20:56:26.442Z,99.42
2022-12-25T20:58:54.356Z,99.84
2022-12-25T21:01:21.179Z,99.77
2022-12-25T21:03:47.887Z,99.26
2022-12-25T21:06:16.129Z,99.56
2022-12-25T21:08:42.737Z,99.38
2022-12-25T21:11:10.791Z,99.80
2022-12-25T21:13:39.469Z,99.65
2022-12-25T21:16:07.570Z,99.69
2022-12-25T21:18:34.674Z,99.59
2022-12-25T21:21:02.211Z,99.63
2022-12-25T21:23:30.433Z,99.89
2022-12-25T21:25:57.368Z,100.00
2022-12-25T21:28:24.635Z,99.68
2022-12-25T21:30:51.347Z,99.98
2022-12-25T21:33:18.144Z,99.76
2022-12-25T21:35:44.755Z,99.87
2022-12-25T21:38:11.541Z,100.00
2022-12-25T21:40:39.712Z,99.79
2022-12-25T21:43:06.531Z,100.00
2022-12-25T21:45:33.783Z,100.00
2022-12-25T21:48:02.972Z,100.00
2022-12-25T21:50:32.503Z,100.00
2022-12-25T21:53:02.713Z,100.00
2022-12-25T21:55:29.371Z,100.00
2022-12-25T21:57:57.389Z,99.82
2022-12-25T22:00:23.967Z,100.00
2022-12-25T22:02:50.643Z,99.92
2022-12-25T22:05:17.421Z,99.98
2022-12-25T22:07:44.085Z,99.85
2022-12-25T22:10:10.727Z,100.00
2022-12-25T22:12:37.334Z,100.00
2022-12-25T22:15:08.045Z,100.00
2022-12-25T22:17:36.875Z,100.00
2022-12-25T22:20:05.433Z,99.92
2022-12-25T22:22:32.325Z,100.00
2022-12-25T22:25:00.699Z,100.00
2022-12-25T22:27:31.216Z,100.00
2022-12-25T22:29:58.053Z,100.00
2022-12-25T22:32:26.529Z,99.89
2022-12-25T22:34:53.196Z,99.52
2022-12-25T22:37:20.043Z,99.90
2022-12-25T22:39:46.977Z,99.91
2022-12-25T22:42:13.817Z,99.79
2022-12-25T22:44:40.581Z,99.55
2022-12-25T22:47:07.431Z,99.76
2022-12-25T22:49:35.442Z,99.66
2022-12-25T22:52:02.287Z,99.83
2022-12-25T22:54:30.556Z,99.54
2022-12-25T22:56:57.930Z,99.54
2022-12-25T22:59:24.514Z,99.36
2022-12-25T23:01:51.218Z,99.39
2022-12-25T23:04:18.210Z,99.59
2022-12-25T23:06:46.753Z,99.35
2022-12-25T23:09:20.579Z,99.46
2022-12-25T23:11:50.917Z,99.18
2022-12-25T23:14:17.536Z,99.12
2022-12-25T23:16:44.525Z,98.91
2022-12-25T23:19:12.401Z,98.88
2022-12-25T23:21:40.291Z,98.68
2022-12-25T23:24:09.650Z,98.91
2022-12-25T23:26:36.437Z,98.84
2022-12-25T23:29:03.516Z,98.68
2022-12-25T23:31:32.677Z,98.74
2022-12-25T23:33:59.734Z,98.71
2022-12-25T23:36:26.443Z,98.42
2022-12-25T23:38:53.091Z,98.41
2022-12-25T23:41:21.454Z,98.45
2022-12-25T23:43:48.149Z,98.33
2022-12-25T23:46:15.134Z,98.36
2022-12-25T23:48:41.819Z,97.83
2022-12-25T23:51:08.687Z,98.27
2022-12-25T23:53:35.752Z,98.23
2022-12-25T23:56:02.969Z,98.12
2022-12-25T23:58:31.050Z,98.24
